sensor_id;sensor_type;location;lat;lon;timestamp;P1;durP1;ratioP1;P2;durP2;ratioP2
58260;SDS011;44058;52.898;6.502;2023-01-26T00:01:46;42.03;;;17.23;;
58260;SDS011;44058;52.898;6.502;2023-01-26T00:04:12;39.83;;;16.17;;
58260;SDS011;44058;52.898;6.502;2023-01-26T00:06:39;45.53;;;15.63;;
58260;SDS011;44058;52.898;6.502;2023-01-26T00:09:05;35.97;;;14.57;;
58260;SDS011;44058;52.898;6.502;2023-01-26T00:11:31;41.13;;;16.17;;
58260;SDS011;44058;52.898;6.502;2023-01-26T00:13:57;43.37;;;17.03;;
58260;SDS011;44058;52.898;6.502;2023-01-26T00:16:24;34.17;;;15.33;;
58260;SDS011;44058;52.898;6.502;2023-01-26T00:18:50;33.93;;;14.53;;
58260;SDS011;44058;52.898;6.502;2023-01-26T00:21:17;37.43;;;15.73;;
58260;SDS011;44058;52.898;6.502;2023-01-26T00:23:44;40.13;;;15.23;;
58260;SDS011;44058;52.898;6.502;2023-01-26T00:26:14;40.20;;;15.77;;
58260;SDS011;44058;52.898;6.502;2023-01-26T00:28:41;36.70;;;15.37;;
58260;SDS011;44058;52.898;6.502;2023-01-26T00:31:17;36.63;;;15.13;;
58260;SDS011;44058;52.898;6.502;2023-01-26T00:33:43;41.47;;;16.07;;
58260;SDS011;44058;52.898;6.502;2023-01-26T00:36:09;44.17;;;16.13;;
58260;SDS011;44058;52.898;6.502;2023-01-26T00:38:36;41.27;;;16.07;;
58260;SDS011;44058;52.898;6.502;2023-01-26T00:41:02;47.03;;;16.23;;
58260;SDS011;44058;52.898;6.502;2023-01-26T00:43:28;41.57;;;17.13;;
58260;SDS011;44058;52.898;6.502;2023-01-26T00:45:54;40.53;;;16.43;;
58260;SDS011;44058;52.898;6.502;2023-01-26T00:48:20;41.80;;;16.90;;
58260;SDS011;44058;52.898;6.502;2023-01-26T00:50:48;45.60;;;17.10;;
58260;SDS011;44058;52.898;6.502;2023-01-26T00:53:15;41.93;;;17.57;;
58260;SDS011;44058;52.898;6.502;2023-01-26T00:55:41;40.20;;;15.40;;
58260;SDS011;44058;52.898;6.502;2023-01-26T00:58:07;44.80;;;17.00;;
58260;SDS011;44058;52.898;6.502;2023-01-26T01:00:34;43.93;;;16.27;;
58260;SDS011;44058;52.898;6.502;2023-01-26T01:03:01;41.07;;;17.17;;
58260;SDS011;44058;52.898;6.502;2023-01-26T01:05:28;42.50;;;16.20;;
58260;SDS011;44058;52.898;6.502;2023-01-26T01:07:55;36.87;;;16.07;;
58260;SDS011;44058;52.898;6.502;2023-01-26T01:10:21;44.30;;;17.40;;
58260;SDS011;44058;52.898;6.502;2023-01-26T01:12:47;36.70;;;14.47;;
58260;SDS011;44058;52.898;6.502;2023-01-26T01:15:13;43.20;;;16.70;;
58260;SDS011;44058;52.898;6.502;2023-01-26T01:17:39;34.53;;;15.60;;
58260;SDS011;44058;52.898;6.502;2023-01-26T01:20:06;35.83;;;14.57;;
58260;SDS011;44058;52.898;6.502;2023-01-26T01:22:33;39.67;;;16.50;;
58260;SDS011;44058;52.898;6.502;2023-01-26T01:25:00;38.40;;;15.70;;
58260;SDS011;44058;52.898;6.502;2023-01-26T01:27:26;35.87;;;15.20;;
58260;SDS011;44058;52.898;6.502;2023-01-26T01:29:52;38.27;;;15.70;;
58260;SDS011;44058;52.898;6.502;2023-01-26T01:32:18;38.40;;;16.20;;
58260;SDS011;44058;52.898;6.502;2023-01-26T01:34:47;39.90;;;15.23;;
58260;SDS011;44058;52.898;6.502;2023-01-26T01:37:14;35.13;;;14.77;;
58260;SDS011;44058;52.898;6.502;2023-01-26T01:39:40;37.17;;;15.37;;
58260;SDS011;44058;52.898;6.502;2023-01-26T01:42:06;36.27;;;15.47;;
58260;SDS011;44058;52.898;6.502;2023-01-26T01:44:33;37.40;;;15.13;;
58260;SDS011;44058;52.898;6.502;2023-01-26T01:47:05;36.97;;;15.13;;
58260;SDS011;44058;52.898;6.502;2023-01-26T01:49:36;33.63;;;15.83;;
58260;SDS011;44058;52.898;6.502;2023-01-26T01:52:10;37.30;;;14.90;;
58260;SDS011;44058;52.898;6.502;2023-01-26T01:54:38;37.10;;;14.87;;
58260;SDS011;44058;52.898;6.502;2023-01-26T01:57:07;37.70;;;15.10;;
58260;SDS011;44058;52.898;6.502;2023-01-26T01:59:40;39.00;;;16.07;;
58260;SDS011;44058;52.898;6.502;2023-01-26T02:02:07;33.53;;;13.50;;
58260;SDS011;44058;52.898;6.502;2023-01-26T02:04:35;34.07;;;14.07;;
58260;SDS011;44058;52.898;6.502;2023-01-26T02:07:01;37.57;;;14.87;;
58260;SDS011;44058;52.898;6.502;2023-01-26T02:09:29;36.17;;;13.87;;
58260;SDS011;44058;52.898;6.502;2023-01-26T02:12:15;43.60;;;15.23;;
58260;SDS011;44058;52.898;6.502;2023-01-26T02:14:42;36.47;;;14.10;;
58260;SDS011;44058;52.898;6.502;2023-01-26T02:17:09;34.90;;;14.77;;
58260;SDS011;44058;52.898;6.502;2023-01-26T02:19:42;31.77;;;13.67;;
58260;SDS011;44058;52.898;6.502;2023-01-26T02:22:13;30.10;;;13.73;;
58260;SDS011;44058;52.898;6.502;2023-01-26T02:24:41;33.20;;;13.80;;
58260;SDS011;44058;52.898;6.502;2023-01-26T02:27:08;32.27;;;13.40;;
58260;SDS011;44058;52.898;6.502;2023-01-26T02:29:34;34.80;;;14.37;;
58260;SDS011;44058;52.898;6.502;2023-01-26T02:32:00;31.23;;;13.83;;
58260;SDS011;44058;52.898;6.502;2023-01-26T02:34:26;34.73;;;14.30;;
58260;SDS011;44058;52.898;6.502;2023-01-26T02:36:56;32.20;;;13.50;;
58260;SDS011;44058;52.898;6.502;2023-01-26T02:42:08;35.67;;;14.40;;
58260;SDS011;44058;52.898;6.502;2023-01-26T02:44:52;32.97;;;13.70;;
58260;SDS011;44058;52.898;6.502;2023-01-26T02:47:19;27.80;;;12.73;;
58260;SDS011;44058;52.898;6.502;2023-01-26T02:49:45;31.57;;;12.50;;
58260;SDS011;44058;52.898;6.502;2023-01-26T02:52:11;29.10;;;12.10;;
58260;SDS011;44058;52.898;6.502;2023-01-26T02:54:37;30.67;;;12.53;;
58260;SDS011;44058;52.898;6.502;2023-01-26T02:57:22;28.43;;;11.83;;
58260;SDS011;44058;52.898;6.502;2023-01-26T02:59:48;27.03;;;11.00;;
58260;SDS011;44058;52.898;6.502;2023-01-26T03:02:14;30.23;;;12.50;;
58260;SDS011;44058;52.898;6.502;2023-01-26T03:04:41;30.13;;;12.57;;
58260;SDS011;44058;52.898;6.502;2023-01-26T03:07:08;28.40;;;12.10;;
58260;SDS011;44058;52.898;6.502;2023-01-26T03:09:34;28.43;;;12.00;;
58260;SDS011;44058;52.898;6.502;2023-01-26T03:12:01;26.50;;;11.23;;
58260;SDS011;44058;52.898;6.502;2023-01-26T03:14:27;29.30;;;11.70;;
58260;SDS011;44058;52.898;6.502;2023-01-26T03:16:53;27.07;;;11.07;;
58260;SDS011;44058;52.898;6.502;2023-01-26T03:19:19;27.10;;;11.93;;
58260;SDS011;44058;52.898;6.502;2023-01-26T03:22:04;24.33;;;10.57;;
58260;SDS011;44058;52.898;6.502;2023-01-26T03:24:49;26.93;;;11.00;;
58260;SDS011;44058;52.898;6.502;2023-01-26T03:27:36;26.37;;;10.13;;
58260;SDS011;44058;52.898;6.502;2023-01-26T03:30:04;24.83;;;10.40;;
58260;SDS011;44058;52.898;6.502;2023-01-26T03:32:30;25.83;;;10.70;;
58260;SDS011;44058;52.898;6.502;2023-01-26T03:34:56;23.53;;;10.60;;
58260;SDS011;44058;52.898;6.502;2023-01-26T03:37:22;24.50;;;10.77;;
58260;SDS011;44058;52.898;6.502;2023-01-26T03:39:49;26.50;;;10.90;;
58260;SDS011;44058;52.898;6.502;2023-01-26T03:42:34;24.40;;;10.17;;
58260;SDS011;44058;52.898;6.502;2023-01-26T03:45:19;25.60;;;10.30;;
58260;SDS011;44058;52.898;6.502;2023-01-26T03:48:05;23.93;;;10.20;;
58260;SDS011;44058;52.898;6.502;2023-01-26T03:50:50;20.23;;;9.90;;
58260;SDS011;44058;52.898;6.502;2023-01-26T03:53:35;23.10;;;10.57;;
58260;SDS011;44058;52.898;6.502;2023-01-26T03:56:20;23.07;;;9.90;;
58260;SDS011;44058;52.898;6.502;2023-01-26T03:58:48;24.07;;;10.00;;
58260;SDS011;44058;52.898;6.502;2023-01-26T04:01:15;21.30;;;9.97;;
58260;SDS011;44058;52.898;6.502;2023-01-26T04:03:47;23.38;;;10.57;;
58260;SDS011;44058;52.898;6.502;2023-01-26T04:06:33;24.40;;;10.82;;
58260;SDS011;44058;52.898;6.502;2023-01-26T04:09:18;22.23;;;9.93;;
58260;SDS011;44058;52.898;6.502;2023-01-26T04:11:45;22.60;;;9.43;;
58260;SDS011;44058;52.898;6.502;2023-01-26T04:14:11;19.73;;;9.70;;
58260;SDS011;44058;52.898;6.502;2023-01-26T04:16:57;23.47;;;9.73;;
58260;SDS011;44058;52.898;6.502;2023-01-26T04:19:42;23.10;;;9.37;;
58260;SDS011;44058;52.898;6.502;2023-01-26T04:22:27;23.40;;;10.67;;
58260;SDS011;44058;52.898;6.502;2023-01-26T04:24:53;23.37;;;10.67;;
58260;SDS011;44058;52.898;6.502;2023-01-26T04:27:19;26.47;;;10.73;;
58260;SDS011;44058;52.898;6.502;2023-01-26T04:29:45;23.10;;;9.67;;
58260;SDS011;44058;52.898;6.502;2023-01-26T04:32:11;23.20;;;10.53;;
58260;SDS011;44058;52.898;6.502;2023-01-26T04:34:37;23.47;;;10.43;;
58260;SDS011;44058;52.898;6.502;2023-01-26T04:37:03;28.27;;;10.83;;
58260;SDS011;44058;52.898;6.502;2023-01-26T04:39:29;25.27;;;11.40;;
58260;SDS011;44058;52.898;6.502;2023-01-26T04:41:55;24.77;;;11.17;;
58260;SDS011;44058;52.898;6.502;2023-01-26T04:44:21;25.50;;;12.00;;
58260;SDS011;44058;52.898;6.502;2023-01-26T04:46:48;22.03;;;10.63;;
58260;SDS011;44058;52.898;6.502;2023-01-26T04:49:14;24.63;;;10.60;;
58260;SDS011;44058;52.898;6.502;2023-01-26T04:51:40;26.33;;;11.73;;
58260;SDS011;44058;52.898;6.502;2023-01-26T04:54:06;25.20;;;10.87;;
58260;SDS011;44058;52.898;6.502;2023-01-26T04:56:33;25.17;;;11.63;;
58260;SDS011;44058;52.898;6.502;2023-01-26T04:59:01;27.77;;;11.77;;
58260;SDS011;44058;52.898;6.502;2023-01-26T05:01:28;21.53;;;9.73;;
58260;SDS011;44058;52.898;6.502;2023-01-26T05:03:54;28.97;;;11.17;;
58260;SDS011;44058;52.898;6.502;2023-01-26T05:06:21;26.20;;;11.83;;
58260;SDS011;44058;52.898;6.502;2023-01-26T05:08:56;21.87;;;10.87;;
58260;SDS011;44058;52.898;6.502;2023-01-26T05:11:23;26.87;;;11.90;;
58260;SDS011;44058;52.898;6.502;2023-01-26T05:13:49;24.00;;;11.50;;
58260;SDS011;44058;52.898;6.502;2023-01-26T05:16:15;22.97;;;10.87;;
58260;SDS011;44058;52.898;6.502;2023-01-26T05:18:43;27.17;;;11.90;;
58260;SDS011;44058;52.898;6.502;2023-01-26T05:21:10;27.03;;;12.00;;
58260;SDS011;44058;52.898;6.502;2023-01-26T05:23:36;25.77;;;11.70;;
58260;SDS011;44058;52.898;6.502;2023-01-26T05:26:02;27.70;;;12.40;;
58260;SDS011;44058;52.898;6.502;2023-01-26T05:28:29;28.53;;;12.37;;
58260;SDS011;44058;52.898;6.502;2023-01-26T05:30:55;28.03;;;11.73;;
58260;SDS011;44058;52.898;6.502;2023-01-26T05:33:21;27.30;;;12.27;;
58260;SDS011;44058;52.898;6.502;2023-01-26T05:35:48;28.07;;;12.33;;
58260;SDS011;44058;52.898;6.502;2023-01-26T05:38:14;34.27;;;12.70;;
58260;SDS011;44058;52.898;6.502;2023-01-26T05:40:40;25.00;;;11.67;;
58260;SDS011;44058;52.898;6.502;2023-01-26T05:43:07;31.37;;;13.07;;
58260;SDS011;44058;52.898;6.502;2023-01-26T05:45:33;28.23;;;12.30;;
58260;SDS011;44058;52.898;6.502;2023-01-26T05:47:59;31.07;;;12.97;;
58260;SDS011;44058;52.898;6.502;2023-01-26T05:50:25;26.23;;;12.13;;
58260;SDS011;44058;52.898;6.502;2023-01-26T05:52:51;30.70;;;13.00;;
58260;SDS011;44058;52.898;6.502;2023-01-26T05:55:18;31.93;;;12.47;;
58260;SDS011;44058;52.898;6.502;2023-01-26T05:57:44;30.60;;;13.17;;
58260;SDS011;44058;52.898;6.502;2023-01-26T06:00:11;30.37;;;12.83;;
58260;SDS011;44058;52.898;6.502;2023-01-26T06:02:37;29.80;;;13.27;;
58260;SDS011;44058;52.898;6.502;2023-01-26T06:05:03;29.30;;;12.43;;
58260;SDS011;44058;52.898;6.502;2023-01-26T06:07:30;29.60;;;12.67;;
58260;SDS011;44058;52.898;6.502;2023-01-26T06:09:57;31.37;;;13.03;;
58260;SDS011;44058;52.898;6.502;2023-01-26T06:12:23;33.67;;;13.17;;
58260;SDS011;44058;52.898;6.502;2023-01-26T06:14:49;28.13;;;12.63;;
58260;SDS011;44058;52.898;6.502;2023-01-26T06:17:16;30.53;;;12.57;;
58260;SDS011;44058;52.898;6.502;2023-01-26T06:19:42;33.67;;;12.33;;
58260;SDS011;44058;52.898;6.502;2023-01-26T06:22:09;36.03;;;13.97;;
58260;SDS011;44058;52.898;6.502;2023-01-26T06:24:36;34.53;;;13.03;;
58260;SDS011;44058;52.898;6.502;2023-01-26T06:27:02;28.97;;;12.67;;
58260;SDS011;44058;52.898;6.502;2023-01-26T06:29:32;36.40;;;15.50;;
58260;SDS011;44058;52.898;6.502;2023-01-26T06:31:59;36.17;;;15.13;;
58260;SDS011;44058;52.898;6.502;2023-01-26T06:34:25;32.33;;;12.53;;
58260;SDS011;44058;52.898;6.502;2023-01-26T06:36:51;34.17;;;14.73;;
58260;SDS011;44058;52.898;6.502;2023-01-26T06:39:18;32.47;;;14.23;;
58260;SDS011;44058;52.898;6.502;2023-01-26T06:41:44;33.30;;;13.23;;
58260;SDS011;44058;52.898;6.502;2023-01-26T06:44:10;32.53;;;14.80;;
58260;SDS011;44058;52.898;6.502;2023-01-26T06:46:36;31.27;;;13.47;;
58260;SDS011;44058;52.898;6.502;2023-01-26T06:49:03;28.00;;;13.20;;
58260;SDS011;44058;52.898;6.502;2023-01-26T06:54:08;30.30;;;13.53;;
58260;SDS011;44058;52.898;6.502;2023-01-26T06:56:34;45.37;;;14.67;;
58260;SDS011;44058;52.898;6.502;2023-01-26T06:59:00;31.57;;;13.30;;
58260;SDS011;44058;52.898;6.502;2023-01-26T07:01:26;33.37;;;12.90;;
58260;SDS011;44058;52.898;6.502;2023-01-26T07:03:55;36.50;;;14.25;;
58260;SDS011;44058;52.898;6.502;2023-01-26T07:06:21;34.17;;;13.17;;
58260;SDS011;44058;52.898;6.502;2023-01-26T07:08:47;30.27;;;13.83;;
58260;SDS011;44058;52.898;6.502;2023-01-26T07:11:14;36.10;;;13.97;;
58260;SDS011;44058;52.898;6.502;2023-01-26T07:13:41;35.67;;;13.00;;
58260;SDS011;44058;52.898;6.502;2023-01-26T07:16:11;34.27;;;13.80;;
58260;SDS011;44058;52.898;6.502;2023-01-26T07:18:37;31.50;;;13.10;;
58260;SDS011;44058;52.898;6.502;2023-01-26T07:21:05;36.13;;;13.67;;
58260;SDS011;44058;52.898;6.502;2023-01-26T07:23:31;32.87;;;12.80;;
58260;SDS011;44058;52.898;6.502;2023-01-26T07:25:57;32.83;;;12.80;;
58260;SDS011;44058;52.898;6.502;2023-01-26T07:28:24;35.30;;;12.97;;
58260;SDS011;44058;52.898;6.502;2023-01-26T07:30:51;39.03;;;14.40;;
58260;SDS011;44058;52.898;6.502;2023-01-26T07:33:17;27.27;;;12.50;;
58260;SDS011;44058;52.898;6.502;2023-01-26T07:35:43;29.83;;;12.53;;
58260;SDS011;44058;52.898;6.502;2023-01-26T07:38:09;29.07;;;13.67;;
58260;SDS011;44058;52.898;6.502;2023-01-26T07:40:35;26.67;;;12.53;;
58260;SDS011;44058;52.898;6.502;2023-01-26T07:43:03;34.27;;;13.77;;
58260;SDS011;44058;52.898;6.502;2023-01-26T07:45:29;29.97;;;13.00;;
58260;SDS011;44058;52.898;6.502;2023-01-26T07:47:55;32.83;;;12.90;;
58260;SDS011;44058;52.898;6.502;2023-01-26T07:50:22;31.80;;;12.80;;
58260;SDS011;44058;52.898;6.502;2023-01-26T07:52:50;26.73;;;12.60;;
58260;SDS011;44058;52.898;6.502;2023-01-26T07:55:17;32.33;;;12.80;;
58260;SDS011;44058;52.898;6.502;2023-01-26T07:57:47;31.07;;;12.87;;
58260;SDS011;44058;52.898;6.502;2023-01-26T08:00:14;32.35;;;13.05;;
58260;SDS011;44058;52.898;6.502;2023-01-26T08:02:40;35.57;;;12.47;;
58260;SDS011;44058;52.898;6.502;2023-01-26T08:05:06;31.90;;;12.50;;
58260;SDS011;44058;52.898;6.502;2023-01-26T08:07:32;34.20;;;12.40;;
58260;SDS011;44058;52.898;6.502;2023-01-26T08:09:58;30.40;;;12.70;;
58260;SDS011;44058;52.898;6.502;2023-01-26T08:12:25;31.00;;;12.63;;
58260;SDS011;44058;52.898;6.502;2023-01-26T08:14:51;32.87;;;12.70;;
58260;SDS011;44058;52.898;6.502;2023-01-26T08:17:18;29.87;;;12.43;;
58260;SDS011;44058;52.898;6.502;2023-01-26T08:20:04;30.70;;;11.90;;
58260;SDS011;44058;52.898;6.502;2023-01-26T08:22:30;32.30;;;12.50;;
58260;SDS011;44058;52.898;6.502;2023-01-26T08:24:56;31.50;;;12.27;;
58260;SDS011;44058;52.898;6.502;2023-01-26T08:27:22;33.03;;;12.20;;
58260;SDS011;44058;52.898;6.502;2023-01-26T08:29:48;104.83;;;15.27;;
58260;SDS011;44058;52.898;6.502;2023-01-26T08:32:15;31.83;;;12.97;;
58260;SDS011;44058;52.898;6.502;2023-01-26T08:34:41;28.53;;;12.00;;
58260;SDS011;44058;52.898;6.502;2023-01-26T08:37:07;34.70;;;12.30;;
58260;SDS011;44058;52.898;6.502;2023-01-26T08:39:33;22.97;;;11.23;;
58260;SDS011;44058;52.898;6.502;2023-01-26T08:41:59;24.97;;;10.80;;
58260;SDS011;44058;52.898;6.502;2023-01-26T08:44:26;24.40;;;11.00;;
58260;SDS011;44058;52.898;6.502;2023-01-26T08:46:52;27.37;;;11.00;;
58260;SDS011;44058;52.898;6.502;2023-01-26T08:49:18;29.93;;;10.83;;
58260;SDS011;44058;52.898;6.502;2023-01-26T08:51:44;26.97;;;10.73;;
58260;SDS011;44058;52.898;6.502;2023-01-26T08:54:11;35.77;;;9.03;;
58260;SDS011;44058;52.898;6.502;2023-01-26T08:56:37;28.93;;;9.80;;
58260;SDS011;44058;52.898;6.502;2023-01-26T08:59:03;35.23;;;10.13;;
58260;SDS011;44058;52.898;6.502;2023-01-26T09:01:29;29.63;;;9.77;;
58260;SDS011;44058;52.898;6.502;2023-01-26T09:03:55;29.23;;;8.63;;
58260;SDS011;44058;52.898;6.502;2023-01-26T09:06:22;27.53;;;9.03;;
58260;SDS011;44058;52.898;6.502;2023-01-26T09:08:49;26.50;;;9.03;;
58260;SDS011;44058;52.898;6.502;2023-01-26T09:11:15;28.20;;;7.87;;
58260;SDS011;44058;52.898;6.502;2023-01-26T09:13:42;26.53;;;8.20;;
58260;SDS011;44058;52.898;6.502;2023-01-26T09:16:13;25.83;;;7.17;;
58260;SDS011;44058;52.898;6.502;2023-01-26T09:18:40;28.10;;;7.80;;
58260;SDS011;44058;52.898;6.502;2023-01-26T09:21:06;23.17;;;7.43;;
58260;SDS011;44058;52.898;6.502;2023-01-26T09:23:33;22.93;;;6.73;;
58260;SDS011;44058;52.898;6.502;2023-01-26T09:26:00;20.87;;;6.70;;
58260;SDS011;44058;52.898;6.502;2023-01-26T09:28:28;20.13;;;6.43;;
58260;SDS011;44058;52.898;6.502;2023-01-26T09:30:54;24.87;;;6.80;;
58260;SDS011;44058;52.898;6.502;2023-01-26T09:33:20;24.13;;;6.93;;
58260;SDS011;44058;52.898;6.502;2023-01-26T09:35:47;19.17;;;6.53;;
58260;SDS011;44058;52.898;6.502;2023-01-26T09:38:13;26.23;;;6.40;;
58260;SDS011;44058;52.898;6.502;2023-01-26T09:43:46;20.42;;;5.50;;
58260;SDS011;44058;52.898;6.502;2023-01-26T09:51:08;20.25;;;4.93;;
58260;SDS011;44058;52.898;6.502;2023-01-26T09:53:40;14.40;;;4.47;;
58260;SDS011;44058;52.898;6.502;2023-01-26T09:56:09;21.90;;;5.53;;
58260;SDS011;44058;52.898;6.502;2023-01-26T09:58:38;17.05;;;4.55;;
58260;SDS011;44058;52.898;6.502;2023-01-26T10:01:08;20.02;;;4.88;;
58260;SDS011;44058;52.898;6.502;2023-01-26T10:06:22;22.38;;;4.78;;
58260;SDS011;44058;52.898;6.502;2023-01-26T10:08:51;18.27;;;4.25;;
58260;SDS011;44058;52.898;6.502;2023-01-26T10:11:25;21.50;;;4.22;;
58260;SDS011;44058;52.898;6.502;2023-01-26T10:13:56;21.23;;;3.70;;
58260;SDS011;44058;52.898;6.502;2023-01-26T10:16:24;19.83;;;3.72;;
58260;SDS011;44058;52.898;6.502;2023-01-26T10:19:04;17.50;;;3.88;;
58260;SDS011;44058;52.898;6.502;2023-01-26T10:21:32;19.75;;;3.80;;
58260;SDS011;44058;52.898;6.502;2023-01-26T10:24:00;15.20;;;3.53;;
58260;SDS011;44058;52.898;6.502;2023-01-26T10:26:30;18.17;;;3.35;;
58260;SDS011;44058;52.898;6.502;2023-01-26T10:28:57;17.05;;;4.18;;
58260;SDS011;44058;52.898;6.502;2023-01-26T10:31:25;18.75;;;3.40;;
58260;SDS011;44058;52.898;6.502;2023-01-26T10:33:52;14.40;;;3.10;;
58260;SDS011;44058;52.898;6.502;2023-01-26T10:36:19;17.20;;;3.83;;
58260;SDS011;44058;52.898;6.502;2023-01-26T10:38:46;19.63;;;3.45;;
58260;SDS011;44058;52.898;6.502;2023-01-26T10:43:39;20.00;;;3.72;;
58260;SDS011;44058;52.898;6.502;2023-01-26T10:46:08;22.02;;;3.78;;
58260;SDS011;44058;52.898;6.502;2023-01-26T10:48:51;18.90;;;3.35;;
58260;SDS011;44058;52.898;6.502;2023-01-26T10:51:21;23.52;;;4.00;;
58260;SDS011;44058;52.898;6.502;2023-01-26T10:53:48;20.50;;;3.83;;
58260;SDS011;44058;52.898;6.502;2023-01-26T10:56:14;21.08;;;4.00;;
58260;SDS011;44058;52.898;6.502;2023-01-26T10:58:53;15.98;;;4.20;;
58260;SDS011;44058;52.898;6.502;2023-01-26T11:01:21;15.00;;;3.15;;
58260;SDS011;44058;52.898;6.502;2023-01-26T11:04:04;19.05;;;3.33;;
58260;SDS011;44058;52.898;6.502;2023-01-26T11:06:31;18.80;;;2.78;;
58260;SDS011;44058;52.898;6.502;2023-01-26T11:09:07;21.85;;;3.60;;
58260;SDS011;44058;52.898;6.502;2023-01-26T11:11:34;18.95;;;2.83;;
58260;SDS011;44058;52.898;6.502;2023-01-26T11:14:11;16.98;;;2.85;;
58260;SDS011;44058;52.898;6.502;2023-01-26T11:16:38;19.58;;;3.58;;
58260;SDS011;44058;52.898;6.502;2023-01-26T11:19:11;15.20;;;3.25;;
58260;SDS011;44058;52.898;6.502;2023-01-26T11:42:23;12.82;;;2.85;;
58260;SDS011;44058;52.898;6.502;2023-01-26T11:45:01;12.93;;;2.47;;
58260;SDS011;44058;52.898;6.502;2023-01-26T12:00:56;10.38;;;2.60;;
58260;SDS011;44058;52.898;6.502;2023-01-26T12:03:05;12.27;;;2.35;;
58260;SDS011;44058;52.898;6.502;2023-01-26T12:05:41;11.95;;;2.45;;
58260;SDS011;44058;52.898;6.502;2023-01-26T12:13:09;11.63;;;2.00;;
58260;SDS011;44058;52.898;6.502;2023-01-26T12:15:38;12.23;;;1.70;;
58260;SDS011;44058;52.898;6.502;2023-01-26T12:20:38;14.90;;;2.63;;
58260;SDS011;44058;52.898;6.502;2023-01-26T12:25:35;11.50;;;2.22;;
58260;SDS011;44058;52.898;6.502;2023-01-26T12:38:15;10.77;;;2.33;;
58260;SDS011;44058;52.898;6.502;2023-01-26T12:40:48;9.23;;;1.60;;
58260;SDS011;44058;52.898;6.502;2023-01-26T12:43:33;9.65;;;1.65;;
58260;SDS011;44058;52.898;6.502;2023-01-26T12:46:01;11.32;;;1.90;;
58260;SDS011;44058;52.898;6.502;2023-01-26T12:48:40;9.00;;;1.80;;
58260;SDS011;44058;52.898;6.502;2023-01-26T12:51:10;8.60;;;1.73;;
58260;SDS011;44058;52.898;6.502;2023-01-26T12:53:49;11.52;;;2.05;;
58260;SDS011;44058;52.898;6.502;2023-01-26T12:56:27;11.90;;;2.10;;
58260;SDS011;44058;52.898;6.502;2023-01-26T12:58:55;9.23;;;2.10;;
58260;SDS011;44058;52.898;6.502;2023-01-26T13:01:23;10.95;;;2.08;;
58260;SDS011;44058;52.898;6.502;2023-01-26T13:06:34;13.93;;;1.92;;
58260;SDS011;44058;52.898;6.502;2023-01-26T13:11:46;13.85;;;2.60;;
58260;SDS011;44058;52.898;6.502;2023-01-26T13:14:29;16.05;;;2.50;;
58260;SDS011;44058;52.898;6.502;2023-01-26T13:22:36;8.05;;;1.70;;
58260;SDS011;44058;52.898;6.502;2023-01-26T13:25:11;11.10;;;1.60;;
58260;SDS011;44058;52.898;6.502;2023-01-26T13:32:52;8.73;;;1.85;;
58260;SDS011;44058;52.898;6.502;2023-01-26T13:35:20;7.57;;;1.40;;
58260;SDS011;44058;52.898;6.502;2023-01-26T13:38:01;10.13;;;2.00;;
58260;SDS011;44058;52.898;6.502;2023-01-26T13:40:35;7.22;;;1.40;;
58260;SDS011;44058;52.898;6.502;2023-01-26T13:48:04;7.20;;;1.48;;
58260;SDS011;44058;52.898;6.502;2023-01-26T13:50:33;8.55;;;1.52;;
58260;SDS011;44058;52.898;6.502;2023-01-26T13:53:02;6.07;;;1.17;;
58260;SDS011;44058;52.898;6.502;2023-01-26T13:55:49;7.10;;;1.20;;
58260;SDS011;44058;52.898;6.502;2023-01-26T13:58:17;9.32;;;1.77;;
58260;SDS011;44058;52.898;6.502;2023-01-26T14:01:03;8.43;;;1.40;;
58260;SDS011;44058;52.898;6.502;2023-01-26T14:03:30;5.82;;;1.05;;
58260;SDS011;44058;52.898;6.502;2023-01-26T14:06:07;7.57;;;1.10;;
58260;SDS011;44058;52.898;6.502;2023-01-26T14:08:34;8.00;;;1.65;;
58260;SDS011;44058;52.898;6.502;2023-01-26T14:11:01;8.40;;;1.50;;
58260;SDS011;44058;52.898;6.502;2023-01-26T14:13:30;7.63;;;1.17;;
58260;SDS011;44058;52.898;6.502;2023-01-26T14:15:58;5.18;;;1.13;;
58260;SDS011;44058;52.898;6.502;2023-01-26T14:18:26;6.07;;;1.52;;
58260;SDS011;44058;52.898;6.502;2023-01-26T14:23:25;10.48;;;1.83;;
58260;SDS011;44058;52.898;6.502;2023-01-26T14:25:56;8.57;;;1.38;;
58260;SDS011;44058;52.898;6.502;2023-01-26T14:28:24;7.60;;;1.50;;
58260;SDS011;44058;52.898;6.502;2023-01-26T14:30:53;12.70;;;1.92;;
58260;SDS011;44058;52.898;6.502;2023-01-26T14:33:21;8.57;;;1.42;;
58260;SDS011;44058;52.898;6.502;2023-01-26T14:35:56;8.02;;;1.38;;
58260;SDS011;44058;52.898;6.502;2023-01-26T14:38:22;17.35;;;2.40;;
58260;SDS011;44058;52.898;6.502;2023-01-26T14:40:49;8.85;;;1.85;;
58260;SDS011;44058;52.898;6.502;2023-01-26T14:43:16;5.90;;;1.35;;
58260;SDS011;44058;52.898;6.502;2023-01-26T14:45:44;11.50;;;2.05;;
58260;SDS011;44058;52.898;6.502;2023-01-26T14:48:13;8.25;;;1.30;;
58260;SDS011;44058;52.898;6.502;2023-01-26T14:50:40;7.60;;;1.95;;
58260;SDS011;44058;52.898;6.502;2023-01-26T14:53:21;12.57;;;1.90;;
58260;SDS011;44058;52.898;6.502;2023-01-26T14:55:48;9.50;;;1.52;;
58260;SDS011;44058;52.898;6.502;2023-01-26T14:58:17;11.32;;;1.23;;
58260;SDS011;44058;52.898;6.502;2023-01-26T15:00:48;6.28;;;1.17;;
58260;SDS011;44058;52.898;6.502;2023-01-26T15:03:28;11.60;;;1.55;;
58260;SDS011;44058;52.898;6.502;2023-01-26T15:08:29;7.40;;;1.50;;
58260;SDS011;44058;52.898;6.502;2023-01-26T15:10:56;8.05;;;1.85;;
58260;SDS011;44058;52.898;6.502;2023-01-26T15:13:43;9.32;;;1.50;;
58260;SDS011;44058;52.898;6.502;2023-01-26T15:16:13;7.60;;;1.13;;
58260;SDS011;44058;52.898;6.502;2023-01-26T15:18:41;6.05;;;1.40;;
58260;SDS011;44058;52.898;6.502;2023-01-26T15:21:12;6.93;;;1.23;;
58260;SDS011;44058;52.898;6.502;2023-01-26T15:23:49;6.45;;;1.30;;
58260;SDS011;44058;52.898;6.502;2023-01-26T15:28:51;7.57;;;1.30;;
58260;SDS011;44058;52.898;6.502;2023-01-26T15:31:19;7.38;;;1.60;;
58260;SDS011;44058;52.898;6.502;2023-01-26T15:33:50;9.13;;;1.50;;
58260;SDS011;44058;52.898;6.502;2023-01-26T15:36:20;8.30;;;1.50;;
58260;SDS011;44058;52.898;6.502;2023-01-26T15:38:46;7.40;;;1.30;;
58260;SDS011;44058;52.898;6.502;2023-01-26T15:41:13;10.40;;;1.77;;
58260;SDS011;44058;52.898;6.502;2023-01-26T15:43:39;8.70;;;1.52;;
58260;SDS011;44058;52.898;6.502;2023-01-26T15:46:07;8.65;;;1.88;;
58260;SDS011;44058;52.898;6.502;2023-01-26T15:48:34;14.00;;;2.03;;
58260;SDS011;44058;52.898;6.502;2023-01-26T15:51:00;10.50;;;1.90;;
58260;SDS011;44058;52.898;6.502;2023-01-26T15:53:26;14.93;;;5.18;;
58260;SDS011;44058;52.898;6.502;2023-01-26T15:55:52;14.80;;;5.20;;
58260;SDS011;44058;52.898;6.502;2023-01-26T15:58:23;23.55;;;9.38;;
58260;SDS011;44058;52.898;6.502;2023-01-26T16:00:50;38.90;;;20.27;;
58260;SDS011;44058;52.898;6.502;2023-01-26T16:03:19;26.20;;;12.20;;
58260;SDS011;44058;52.898;6.502;2023-01-26T16:05:46;24.50;;;13.93;;
58260;SDS011;44058;52.898;6.502;2023-01-26T16:08:13;20.63;;;10.80;;
58260;SDS011;44058;52.898;6.502;2023-01-26T16:10:39;39.22;;;19.83;;
58260;SDS011;44058;52.898;6.502;2023-01-26T16:13:09;20.38;;;10.25;;
58260;SDS011;44058;52.898;6.502;2023-01-26T16:18:02;48.15;;;27.80;;
58260;SDS011;44058;52.898;6.502;2023-01-26T16:20:29;19.70;;;10.10;;
58260;SDS011;44058;52.898;6.502;2023-01-26T16:22:55;25.10;;;10.68;;